sensor_id;sensor_type;location;lat;lon;timestamp;pressure;altitude;pressure_sealevel;temperature;humidity
6615;BME280;3343;42.896;23.912;2023-04-03T00:01:44;73004.81;;;-145.80;52.55
6615;BME280;3343;42.896;23.912;2023-04-03T00:04:11;72984.78;;;-145.80;52.23
6615;BME280;3343;42.896;23.912;2023-04-03T00:06:38;72976.75;;;-145.80;51.71
6615;BME280;3343;42.896;23.912;2023-04-03T00:09:06;72982.75;;;-145.80;52.92
6615;BME280;3343;42.896;23.912;2023-04-03T00:11:33;73087.06;;;-145.80;55.40
6615;BME280;3343;42.896;23.912;2023-04-03T00:14:00;73129.16;;;-145.80;57.11
6615;BME280;3343;42.896;23.912;2023-04-03T00:16:27;73159.25;;;-145.80;57.90
6615;BME280;3343;42.896;23.912;2023-04-03T00:18:54;73091.06;;;-145.80;56.20
6615;BME280;3343;42.896;23.912;2023-04-03T00:21:20;73056.97;;;-145.80;55.69
6615;BME280;3343;42.896;23.912;2023-04-03T00:23:47;73006.84;;;-145.80;54.42
6615;BME280;3343;42.896;23.912;2023-04-03T00:26:15;72976.75;;;-145.80;53.46
6615;BME280;3343;42.896;23.912;2023-04-03T00:28:42;73004.81;;;-145.80;53.57
6615;BME280;3343;42.896;23.912;2023-04-03T00:31:09;73000.81;;;-145.80;53.45
6615;BME280;3343;42.896;23.912;2023-04-03T00:33:36;73010.84;;;-145.80;53.67
6615;BME280;3343;42.896;23.912;2023-04-03T00:36:07;72994.81;;;-145.80;52.60
6615;BME280;3343;42.896;23.912;2023-04-03T00:38:34;73050.94;;;-145.80;53.47
6615;BME280;3343;42.896;23.912;2023-04-03T00:41:01;73044.94;;;-145.80;53.82
6615;BME280;3343;42.896;23.912;2023-04-03T00:43:30;73075.03;;;-145.80;54.73
6615;BME280;3343;42.896;23.912;2023-04-03T00:45:57;73123.16;;;-145.80;56.86
6615;BME280;3343;42.896;23.912;2023-04-03T00:48:28;73087.06;;;-145.80;56.02
6615;BME280;3343;42.896;23.912;2023-04-03T00:50:56;73073.00;;;-145.80;55.52
6615;BME280;3343;42.896;23.912;2023-04-03T00:53:27;73065.00;;;-145.80;54.95
6615;BME280;3343;42.896;23.912;2023-04-03T00:55:56;73093.06;;;-145.80;54.87
6615;BME280;3343;42.896;23.912;2023-04-03T00:58:34;73075.03;;;-145.80;54.64
6615;BME280;3343;42.896;23.912;2023-04-03T01:01:08;73060.97;;;-145.80;54.74
6615;BME280;3343;42.896;23.912;2023-04-03T01:03:37;73093.06;;;-145.80;54.69
6615;BME280;3343;42.896;23.912;2023-04-03T01:06:04;73165.28;;;-145.80;56.31
6615;BME280;3343;42.896;23.912;2023-04-03T01:08:31;73263.53;;;-145.80;60.00
6615;BME280;3343;42.896;23.912;2023-04-03T01:10:59;73303.66;;;-145.80;61.71
6615;BME280;3343;42.896;23.912;2023-04-03T01:13:27;73257.53;;;-145.80;60.65
6615;BME280;3343;42.896;23.912;2023-04-03T01:15:56;73197.38;;;-145.80;59.33
6615;BME280;3343;42.896;23.912;2023-04-03T01:18:24;73199.38;;;-145.80;59.51
6615;BME280;3343;42.896;23.912;2023-04-03T01:21:23;73117.13;;;-145.80;57.11
6615;BME280;3343;42.896;23.912;2023-04-03T01:23:59;73065.00;;;-145.80;55.66
6615;BME280;3343;42.896;23.912;2023-04-03T01:26:31;73091.06;;;-145.80;55.56
6615;BME280;3343;42.896;23.912;2023-04-03T01:28:59;73117.13;;;-145.80;55.47
6615;BME280;3343;42.896;23.912;2023-04-03T01:34:03;73243.50;;;-145.80;59.45
6615;BME280;3343;42.896;23.912;2023-04-03T01:36:31;73269.56;;;-145.80;59.85
6615;BME280;3343;42.896;23.912;2023-04-03T01:38:59;73233.47;;;-145.80;59.14
6615;BME280;3343;42.896;23.912;2023-04-03T01:41:27;73181.31;;;-145.80;57.92
6615;BME280;3343;42.896;23.912;2023-04-03T01:43:54;73173.28;;;-145.80;57.33
6615;BME280;3343;42.896;23.912;2023-04-03T01:46:21;73215.41;;;-145.80;58.93
6615;BME280;3343;42.896;23.912;2023-04-03T01:48:48;73209.41;;;-145.80;58.09
6615;BME280;3343;42.896;23.912;2023-04-03T01:51:17;73185.31;;;-145.80;57.33
6615;BME280;3343;42.896;23.912;2023-04-03T01:53:44;73175.31;;;-145.80;57.27
6615;BME280;3343;42.896;23.912;2023-04-03T01:56:10;73195.34;;;-145.80;57.19
6615;BME280;3343;42.896;23.912;2023-04-03T01:58:37;73217.41;;;-145.80;57.65
6615;BME280;3343;42.896;23.912;2023-04-03T02:01:05;73215.41;;;-145.80;57.82
6615;BME280;3343;42.896;23.912;2023-04-03T02:03:32;73215.41;;;-145.80;57.14
6615;BME280;3343;42.896;23.912;2023-04-03T02:05:59;73199.38;;;-145.80;56.92
6615;BME280;3343;42.896;23.912;2023-04-03T02:08:27;73205.38;;;-145.80;56.93
6615;BME280;3343;42.896;23.912;2023-04-03T02:10:54;73169.28;;;-145.80;56.36
6615;BME280;3343;42.896;23.912;2023-04-03T02:13:21;73165.28;;;-145.80;55.61
6615;BME280;3343;42.896;23.912;2023-04-03T02:15:48;73145.22;;;-145.80;54.99
6615;BME280;3343;42.896;23.912;2023-04-03T02:18:15;73165.28;;;-145.80;55.14
6615;BME280;3343;42.896;23.912;2023-04-03T02:20:42;73159.25;;;-145.80;55.25
6615;BME280;3343;42.896;23.912;2023-04-03T02:23:09;73161.25;;;-145.80;55.07
6615;BME280;3343;42.896;23.912;2023-04-03T02:25:37;73135.19;;;-145.80;54.58
6615;BME280;3343;42.896;23.912;2023-04-03T02:28:04;73145.22;;;-145.80;54.23
6615;BME280;3343;42.896;23.912;2023-04-03T02:30:31;73187.34;;;-145.80;56.11
6615;BME280;3343;42.896;23.912;2023-04-03T02:32:58;73253.53;;;-145.80;57.67
6615;BME280;3343;42.896;23.912;2023-04-03T02:35:25;73331.75;;;-145.80;59.83
6615;BME280;3343;42.896;23.912;2023-04-03T02:37:52;73305.66;;;-145.80;59.97
6615;BME280;3343;42.896;23.912;2023-04-03T02:40:19;73269.56;;;-145.80;59.15
6615;BME280;3343;42.896;23.912;2023-04-03T02:42:47;73221.44;;;-145.80;58.13
6615;BME280;3343;42.896;23.912;2023-04-03T02:45:14;73207.38;;;-145.80;57.37
6615;BME280;3343;42.896;23.912;2023-04-03T02:47:41;73183.31;;;-145.80;56.65
6615;BME280;3343;42.896;23.912;2023-04-03T02:50:08;73173.28;;;-145.80;56.27
6615;BME280;3343;42.896;23.912;2023-04-03T02:52:35;73189.34;;;-145.80;56.21
6615;BME280;3343;42.896;23.912;2023-04-03T02:55:02;73167.28;;;-145.80;55.80
6615;BME280;3343;42.896;23.912;2023-04-03T02:57:29;73187.34;;;-145.80;56.41
6615;BME280;3343;42.896;23.912;2023-04-03T02:59:57;73183.31;;;-145.80;56.50
6615;BME280;3343;42.896;23.912;2023-04-03T03:02:24;73239.47;;;-145.80;57.53
6615;BME280;3343;42.896;23.912;2023-04-03T03:04:51;73297.66;;;-145.80;59.37
6615;BME280;3343;42.896;23.912;2023-04-03T03:07:17;73345.78;;;-145.80;60.85
6615;BME280;3343;42.896;23.912;2023-04-03T03:09:44;73305.66;;;-145.80;60.30
6615;BME280;3343;42.896;23.912;2023-04-03T03:12:11;73341.78;;;-145.80;60.72
6615;BME280;3343;42.896;23.912;2023-04-03T03:14:38;73353.81;;;-145.80;61.24
6615;BME280;3343;42.896;23.912;2023-04-03T03:17:07;73329.72;;;-145.80;61.71
6615;BME280;3343;42.896;23.912;2023-04-03T03:19:33;73393.91;;;-145.80;62.25
6615;BME280;3343;42.896;23.912;2023-04-03T03:22:00;73399.94;;;-145.80;63.00
6615;BME280;3343;42.896;23.912;2023-04-03T03:24:27;73395.91;;;-145.80;63.18
6615;BME280;3343;42.896;23.912;2023-04-03T03:26:54;73422.00;;;-145.80;64.43
6615;BME280;3343;42.896;23.912;2023-04-03T03:29:21;73385.91;;;-145.80;63.75
6615;BME280;3343;42.896;23.912;2023-04-03T03:31:48;73329.72;;;-145.80;62.48
6615;BME280;3343;42.896;23.912;2023-04-03T03:34:17;73285.59;;;-145.80;61.09
6615;BME280;3343;42.896;23.912;2023-04-03T03:36:44;73277.59;;;-145.80;60.54
6615;BME280;3343;42.896;23.912;2023-04-03T03:39:11;73253.53;;;-145.80;59.55
6615;BME280;3343;42.896;23.912;2023-04-03T03:41:38;73251.50;;;-145.80;59.26
6615;BME280;3343;42.896;23.912;2023-04-03T03:44:05;73241.47;;;-145.80;58.90
6615;BME280;3343;42.896;23.912;2023-04-03T03:46:32;73289.63;;;-145.80;59.81
6615;BME280;3343;42.896;23.912;2023-04-03T03:48:58;73363.81;;;-145.80;62.47
6615;BME280;3343;42.896;23.912;2023-04-03T03:51:27;73287.63;;;-145.80;60.94
6615;BME280;3343;42.896;23.912;2023-04-03T03:53:53;73301.66;;;-145.80;60.08
6615;BME280;3343;42.896;23.912;2023-04-03T03:56:20;73273.56;;;-145.80;59.12
6615;BME280;3343;42.896;23.912;2023-04-03T03:58:47;73283.59;;;-145.80;58.65
6615;BME280;3343;42.896;23.912;2023-04-03T04:01:15;73289.63;;;-145.80;58.94
6615;BME280;3343;42.896;23.912;2023-04-03T04:03:42;73311.69;;;-145.80;59.38
6615;BME280;3343;42.896;23.912;2023-04-03T04:06:09;73335.75;;;-145.80;60.08
6615;BME280;3343;42.896;23.912;2023-04-03T04:08:37;73373.84;;;-145.80;61.44
6615;BME280;3343;42.896;23.912;2023-04-03T04:11:04;73395.91;;;-145.80;61.98
6615;BME280;3343;42.896;23.912;2023-04-03T04:13:30;73385.91;;;-145.80;61.68
6615;BME280;3343;42.896;23.912;2023-04-03T04:15:57;73393.91;;;-145.80;61.73
6615;BME280;3343;42.896;23.912;2023-04-03T04:18:24;73371.84;;;-145.80;61.48
6615;BME280;3343;42.896;23.912;2023-04-03T04:20:51;73411.97;;;-145.80;62.18
6615;BME280;3343;42.896;23.912;2023-04-03T04:23:18;73407.97;;;-145.80;62.58
6615;BME280;3343;42.896;23.912;2023-04-03T04:25:47;73430.03;;;-145.80;63.39
6615;BME280;3343;42.896;23.912;2023-04-03T04:28:15;73484.19;;;-145.80;64.89
6615;BME280;3343;42.896;23.912;2023-04-03T04:30:42;73468.13;;;-145.80;64.80
6615;BME280;3343;42.896;23.912;2023-04-03T04:33:09;73405.94;;;-145.80;63.62
6615;BME280;3343;42.896;23.912;2023-04-03T04:35:36;73385.91;;;-145.80;62.69
6615;BME280;3343;42.896;23.912;2023-04-03T04:38:03;73353.81;;;-145.80;62.25
6615;BME280;3343;42.896;23.912;2023-04-03T04:40:30;73329.72;;;-145.80;60.98
6615;BME280;3343;42.896;23.912;2023-04-03T04:42:58;73341.78;;;-145.80;61.66
6615;BME280;3343;42.896;23.912;2023-04-03T04:45:25;73317.69;;;-145.80;60.50
6615;BME280;3343;42.896;23.912;2023-04-03T04:47:53;73289.63;;;-145.80;59.93
6615;BME280;3343;42.896;23.912;2023-04-03T04:50:21;73273.56;;;-145.80;59.55
6615;BME280;3343;42.896;23.912;2023-04-03T04:52:48;73271.56;;;-145.80;58.58
6615;BME280;3343;42.896;23.912;2023-04-03T04:55:15;73265.56;;;-145.80;58.23
6615;BME280;3343;42.896;23.912;2023-04-03T04:57:42;73269.56;;;-145.80;57.89
6615;BME280;3343;42.896;23.912;2023-04-03T05:00:11;73265.56;;;-145.80;57.87
6615;BME280;3343;42.896;23.912;2023-04-03T05:02:38;73259.53;;;-145.80;58.06
6615;BME280;3343;42.896;23.912;2023-04-03T05:05:06;73249.50;;;-145.80;57.96
6615;BME280;3343;42.896;23.912;2023-04-03T05:07:33;73245.50;;;-145.80;57.97
6615;BME280;3343;42.896;23.912;2023-04-03T05:10:01;73233.47;;;-145.80;57.75
6615;BME280;3343;42.896;23.912;2023-04-03T05:12:29;73233.47;;;-145.80;57.96
6615;BME280;3343;42.896;23.912;2023-04-03T05:14:55;73225.44;;;-145.80;57.70
6615;BME280;3343;42.896;23.912;2023-04-03T05:17:24;73197.38;;;-145.80;56.84
6615;BME280;3343;42.896;23.912;2023-04-03T05:19:51;73201.38;;;-145.80;56.81
6615;BME280;3343;42.896;23.912;2023-04-03T05:22:17;73235.47;;;-145.80;57.87
6615;BME280;3343;42.896;23.912;2023-04-03T05:24:44;73259.53;;;-145.80;59.04
6615;BME280;3343;42.896;23.912;2023-04-03T05:27:11;73241.47;;;-145.80;59.64
6615;BME280;3343;42.896;23.912;2023-04-03T05:29:38;73213.41;;;-145.80;58.61
6615;BME280;3343;42.896;23.912;2023-04-03T05:32:09;73259.53;;;-145.80;59.33
6615;BME280;3343;42.896;23.912;2023-04-03T05:34:37;73217.41;;;-145.80;59.27
6615;BME280;3343;42.896;23.912;2023-04-03T05:37:04;73245.50;;;-145.80;60.63
6615;BME280;3343;42.896;23.912;2023-04-03T05:39:31;73147.22;;;-145.80;59.00
6615;BME280;3343;42.896;23.912;2023-04-03T05:41:58;73155.25;;;-145.80;58.22
6615;BME280;3343;42.896;23.912;2023-04-03T05:44:25;73201.38;;;-145.80;59.98
6615;BME280;3343;42.896;23.912;2023-04-03T05:46:52;73197.38;;;-145.80;58.66
6615;BME280;3343;42.896;23.912;2023-04-03T05:49:19;73173.28;;;-145.80;58.78
6615;BME280;3343;42.896;23.912;2023-04-03T05:51:47;73145.22;;;-145.80;57.70
6615;BME280;3343;42.896;23.912;2023-04-03T05:54:17;73087.06;;;-145.80;56.79
6615;BME280;3343;42.896;23.912;2023-04-03T05:56:45;73058.97;;;-145.80;55.70
6615;BME280;3343;42.896;23.912;2023-04-03T05:59:12;73038.91;;;-145.80;55.37
6615;BME280;3343;42.896;23.912;2023-04-03T06:01:39;73052.97;;;-145.80;55.13
6615;BME280;3343;42.896;23.912;2023-04-03T06:04:05;73069.00;;;-145.80;56.02
6615;BME280;3343;42.896;23.912;2023-04-03T06:06:44;73016.84;;;-145.80;54.93
6615;BME280;3343;42.896;23.912;2023-04-03T06:09:13;73016.84;;;-145.80;54.53
6615;BME280;3343;42.896;23.912;2023-04-03T06:11:41;73006.84;;;-145.80;54.96
6615;BME280;3343;42.896;23.912;2023-04-03T06:14:09;72992.78;;;-145.80;54.92
6615;BME280;3343;42.896;23.912;2023-04-03T06:16:37;72974.75;;;-145.80;54.73
6615;BME280;3343;42.896;23.912;2023-04-03T06:19:05;72956.69;;;-145.80;53.93
6615;BME280;3343;42.896;23.912;2023-04-03T06:21:32;72940.66;;;-145.80;53.74
6615;BME280;3343;42.896;23.912;2023-04-03T06:23:59;72900.53;;;-145.80;53.62
6615;BME280;3343;42.896;23.912;2023-04-03T06:26:27;72892.53;;;-145.80;53.18
6615;BME280;3343;42.896;23.912;2023-04-03T06:28:54;72872.47;;;-145.80;53.21
6615;BME280;3343;42.896;23.912;2023-04-03T06:31:21;72850.41;;;-145.80;52.52
6615;BME280;3343;42.896;23.912;2023-04-03T06:33:48;72832.34;;;-145.80;52.11
6615;BME280;3343;42.896;23.912;2023-04-03T06:36:15;72780.22;;;-145.80;52.89
6615;BME280;3343;42.896;23.912;2023-04-03T06:38:45;72740.09;;;-145.80;52.13
6615;BME280;3343;42.896;23.912;2023-04-03T06:41:12;72716.03;;;-145.80;50.99
6615;BME280;3343;42.896;23.912;2023-04-03T06:43:40;72708.03;;;-145.80;49.24
6615;BME280;3343;42.896;23.912;2023-04-03T06:46:12;72696.00;;;-145.80;47.29
6615;BME280;3343;42.896;23.912;2023-04-03T06:48:40;72726.06;;;-145.80;46.71
6615;BME280;3343;42.896;23.912;2023-04-03T06:51:17;72730.09;;;-145.80;46.28
6615;BME280;3343;42.896;23.912;2023-04-03T06:53:45;72710.03;;;-145.80;46.53
6615;BME280;3343;42.896;23.912;2023-04-03T06:56:13;72696.00;;;-145.80;47.17
6615;BME280;3343;42.896;23.912;2023-04-03T06:58:42;72645.84;;;-145.80;47.06
6615;BME280;3343;42.896;23.912;2023-04-03T07:01:09;72617.78;;;-145.80;46.72
6615;BME280;3343;42.896;23.912;2023-04-03T07:03:37;72575.66;;;-145.80;46.00
6615;BME280;3343;42.896;23.912;2023-04-03T07:06:05;72579.69;;;-145.80;45.37
6615;BME280;3343;42.896;23.912;2023-04-03T07:08:32;72571.66;;;-145.80;43.80
6615;BME280;3343;42.896;23.912;2023-04-03T07:10:59;72579.69;;;-145.80;44.62
6615;BME280;3343;42.896;23.912;2023-04-03T07:13:26;72545.59;;;-145.80;43.57
6615;BME280;3343;42.896;23.912;2023-04-03T07:15:55;72551.59;;;-145.80;42.99
6615;BME280;3343;42.896;23.912;2023-04-03T07:18:22;72571.66;;;-145.80;44.09
6615;BME280;3343;42.896;23.912;2023-04-03T07:20:49;72579.69;;;-145.80;43.94
6615;BME280;3343;42.896;23.912;2023-04-03T07:23:17;72589.72;;;-145.80;44.03
6615;BME280;3343;42.896;23.912;2023-04-03T07:25:44;72565.66;;;-145.80;43.88
6615;BME280;3343;42.896;23.912;2023-04-03T07:28:11;72537.56;;;-145.80;44.07
6615;BME280;3343;42.896;23.912;2023-04-03T07:30:48;72469.41;;;-145.80;43.26
6615;BME280;3343;42.896;23.912;2023-04-03T07:33:18;72471.41;;;-145.80;44.26
6615;BME280;3343;42.896;23.912;2023-04-03T07:35:45;72453.34;;;-145.80;42.38
6615;BME280;3343;42.896;23.912;2023-04-03T07:38:13;72455.34;;;-145.80;41.94
6615;BME280;3343;42.896;23.912;2023-04-03T07:40:45;72423.28;;;-145.80;43.12
6615;BME280;3343;42.896;23.912;2023-04-03T07:43:13;72395.22;;;-145.80;42.56
6615;BME280;3343;42.896;23.912;2023-04-03T07:45:40;72381.16;;;-145.80;40.32
6615;BME280;3343;42.896;23.912;2023-04-03T07:48:07;72373.16;;;-145.80;39.74
6615;BME280;3343;42.896;23.912;2023-04-03T07:50:35;72363.13;;;-145.80;39.85
6615;BME280;3343;42.896;23.912;2023-04-03T07:53:02;72353.09;;;-145.80;41.42
6615;BME280;3343;42.896;23.912;2023-04-03T07:55:29;72359.13;;;-145.80;41.87
6615;BME280;3343;42.896;23.912;2023-04-03T07:57:56;72288.94;;;-145.80;42.02
6615;BME280;3343;42.896;23.912;2023-04-03T08:00:23;72282.91;;;-145.80;39.75
6615;BME280;3343;42.896;23.912;2023-04-03T08:02:50;72232.78;;;-145.80;40.25
6615;BME280;3343;42.896;23.912;2023-04-03T08:05:17;72170.63;;;-145.80;39.05
6615;BME280;3343;42.896;23.912;2023-04-03T08:07:47;72126.53;;;-145.80;39.58
6615;BME280;3343;42.896;23.912;2023-04-03T08:10:14;72154.59;;;-145.80;40.16
6615;BME280;3343;42.896;23.912;2023-04-03T08:12:41;72134.53;;;-145.80;39.98
6615;BME280;3343;42.896;23.912;2023-04-03T08:15:09;72112.50;;;-145.80;39.75
6615;BME280;3343;42.896;23.912;2023-04-03T08:17:36;72084.41;;;-145.80;37.37
6615;BME280;3343;42.896;23.912;2023-04-03T08:20:04;72078.41;;;-145.80;36.70
6615;BME280;3343;42.896;23.912;2023-04-03T08:22:32;72086.44;;;-145.80;36.91
6615;BME280;3343;42.896;23.912;2023-04-03T08:25:00;72082.41;;;-145.80;35.93
6615;BME280;3343;42.896;23.912;2023-04-03T08:27:27;72098.44;;;-145.80;34.68
6615;BME280;3343;42.896;23.912;2023-04-03T08:29:54;72092.44;;;-145.80;34.97
6615;BME280;3343;42.896;23.912;2023-04-03T08:32:22;72072.38;;;-145.80;35.89
6615;BME280;3343;42.896;23.912;2023-04-03T08:34:49;72042.31;;;-145.80;35.68
6615;BME280;3343;42.896;23.912;2023-04-03T08:37:16;72030.28;;;-145.80;33.51
6615;BME280;3343;42.896;23.912;2023-04-03T08:39:43;72010.25;;;-145.80;33.78
6615;BME280;3343;42.896;23.912;2023-04-03T08:42:16;71990.19;;;-145.80;33.23
6615;BME280;3343;42.896;23.912;2023-04-03T08:44:47;72034.28;;;-145.80;33.63
6615;BME280;3343;42.896;23.912;2023-04-03T08:47:23;72022.28;;;-145.80;33.96
6615;BME280;3343;42.896;23.912;2023-04-03T08:49:53;72078.41;;;-145.80;33.17
6615;BME280;3343;42.896;23.912;2023-04-03T08:52:27;72114.50;;;-145.80;33.97
6615;BME280;3343;42.896;23.912;2023-04-03T08:55:00;72142.56;;;-145.80;35.32
6615;BME280;3343;42.896;23.912;2023-04-03T08:57:33;72098.44;;;-145.80;34.61
6615;BME280;3343;42.896;23.912;2023-04-03T09:00:03;72138.56;;;-145.80;34.15
6615;BME280;3343;42.896;23.912;2023-04-03T09:02:33;72186.69;;;-145.80;34.25
6615;BME280;3343;42.896;23.912;2023-04-03T09:05:01;72190.69;;;-145.80;35.03
6615;BME280;3343;42.896;23.912;2023-04-03T09:07:35;72182.66;;;-145.80;34.01
6615;BME280;3343;42.896;23.912;2023-04-03T09:10:03;72178.66;;;-145.80;34.01
6615;BME280;3343;42.896;23.912;2023-04-03T09:12:37;72126.53;;;-145.80;33.34
6615;BME280;3343;42.896;23.912;2023-04-03T09:15:14;72112.50;;;-145.80;33.58
6615;BME280;3343;42.896;23.912;2023-04-03T09:17:53;72062.38;;;-145.80;32.83
6615;BME280;3343;42.896;23.912;2023-04-03T09:20:29;72078.41;;;-145.80;32.86
6615;BME280;3343;42.896;23.912;2023-04-03T09:23:00;72122.50;;;-145.80;33.17
6615;BME280;3343;42.896;23.912;2023-04-03T09:25:31;72166.63;;;-145.80;33.70
6615;BME280;3343;42.896;23.912;2023-04-03T09:28:01;72188.69;;;-145.80;34.02
6615;BME280;3343;42.896;23.912;2023-04-03T09:30:29;72140.56;;;-145.80;33.14
6615;BME280;3343;42.896;23.912;2023-04-03T09:32:57;72158.59;;;-145.80;33.22
6615;BME280;3343;42.896;23.912;2023-04-03T09:35:26;72080.41;;;-145.80;33.62
6615;BME280;3343;42.896;23.912;2023-04-03T09:37:55;72046.31;;;-145.80;34.06
6615;BME280;3343;42.896;23.912;2023-04-03T09:40:34;71996.19;;;-145.80;33.98
6615;BME280;3343;42.896;23.912;2023-04-03T09:43:24;71992.19;;;-145.80;33.74
6615;BME280;3343;42.896;23.912;2023-04-03T09:45:52;72014.25;;;-145.80;33.85
6615;BME280;3343;42.896;23.912;2023-04-03T09:48:20;71990.19;;;-145.80;33.78
6615;BME280;3343;42.896;23.912;2023-04-03T09:50:59;71992.19;;;-145.80;33.08
6615;BME280;3343;42.896;23.912;2023-04-03T09:53:35;71976.16;;;-145.80;33.56
6615;BME280;3343;42.896;23.912;2023-04-03T09:56:09;72048.34;;;-145.80;33.54
6615;BME280;3343;42.896;23.912;2023-04-03T09:58:48;72062.38;;;-145.80;33.78
6615;BME280;3343;42.896;23.912;2023-04-03T10:01:28;71996.19;;;-145.80;33.83
6615;BME280;3343;42.896;23.912;2023-04-03T10:04:08;72016.25;;;-145.80;33.80
6615;BME280;3343;42.896;23.912;2023-04-03T10:06:37;72046.31;;;-145.80;32.96
6615;BME280;3343;42.896;23.912;2023-04-03T10:09:17;72096.44;;;-145.80;33.66
6615;BME280;3343;42.896;23.912;2023-04-03T10:11:58;72054.34;;;-145.80;34.85
6615;BME280;3343;42.896;23.912;2023-04-03T10:14:28;72028.28;;;-145.80;33.32
6615;BME280;3343;42.896;23.912;2023-04-03T10:17:02;72000.22;;;-145.80;33.31
6615;BME280;3343;42.896;23.912;2023-04-03T10:19:34;72000.22;;;-145.80;33.20
6615;BME280;3343;42.896;23.912;2023-04-03T10:22:09;71966.13;;;-145.80;33.51
6615;BME280;3343;42.896;23.912;2023-04-03T10:24:57;71964.13;;;-145.80;33.59
6615;BME280;3343;42.896;23.912;2023-04-03T10:27:36;71998.22;;;-145.80;33.08
6615;BME280;3343;42.896;23.912;2023-04-03T10:30:19;71994.19;;;-145.80;32.79
6615;BME280;3343;42.896;23.912;2023-04-03T10:32:56;71992.19;;;-145.80;33.97
6615;BME280;3343;42.896;23.912;2023-04-03T10:35:34;71996.19;;;-145.80;33.38
6615;BME280;3343;42.896;23.912;2023-04-03T10:38:09;72040.31;;;-145.80;33.38
6615;BME280;3343;42.896;23.912;2023-04-03T10:40:46;71998.22;;;-145.80;34.06
6615;BME280;3343;42.896;23.912;2023-04-03T10:43:18;71990.19;;;-145.80;34.06
6615;BME280;3343;42.896;23.912;2023-04-03T10:45:57;71998.22;;;-145.80;33.89
6615;BME280;3343;42.896;23.912;2023-04-03T10:48:35;71996.19;;;-145.80;34.10
6615;BME280;3343;42.896;23.912;2023-04-03T10:51:12;72018.25;;;-145.80;33.65
6615;BME280;3343;42.896;23.912;2023-04-03T10:53:45;72058.34;;;-145.80;33.20
6615;BME280;3343;42.896;23.912;2023-04-03T10:56:18;72068.38;;;-145.80;34.57
6615;BME280;3343;42.896;23.912;2023-04-03T10:58:50;72022.28;;;-145.80;33.78
6615;BME280;3343;42.896;23.912;2023-04-03T11:01:28;72028.28;;;-145.80;34.38
6615;BME280;3343;42.896;23.912;2023-04-03T11:03:59;72068.38;;;-145.80;33.89
6615;BME280;3343;42.896;23.912;2023-04-03T11:06:33;72044.31;;;-145.80;34.80
6615;BME280;3343;42.896;23.912;2023-04-03T11:09:10;72026.28;;;-145.80;34.80
6615;BME280;3343;42.896;23.912;2023-04-03T11:11:39;72040.31;;;-145.80;34.09
6615;BME280;3343;42.896;23.912;2023-04-03T11:14:11;72048.34;;;-145.80;34.37
6615;BME280;3343;42.896;23.912;2023-04-03T11:16:46;72068.38;;;-145.80;35.42
6615;BME280;3343;42.896;23.912;2023-04-03T11:19:18;72058.34;;;-145.80;35.14
6615;BME280;3343;42.896;23.912;2023-04-03T11:21:52;72032.28;;;-145.80;33.93
6615;BME280;3343;42.896;23.912;2023-04-03T11:24:24;72030.28;;;-145.80;34.14
6615;BME280;3343;42.896;23.912;2023-04-03T11:26:53;72006.22;;;-145.80;34.88
6615;BME280;3343;42.896;23.912;2023-04-03T11:29:23;72010.25;;;-145.80;34.73
6615;BME280;3343;42.896;23.912;2023-04-03T11:32:04;72042.31;;;-145.80;34.55
6615;BME280;3343;42.896;23.912;2023-04-03T11:34:36;72046.31;;;-145.80;34.71
6615;BME280;3343;42.896;23.912;2023-04-03T11:37:13;72064.38;;;-145.80;35.28
6615;BME280;3343;42.896;23.912;2023-04-03T11:39:49;72056.34;;;-145.80;35.15
6615;BME280;3343;42.896;23.912;2023-04-03T11:42:25;72060.34;;;-145.80;35.80
6615;BME280;3343;42.896;23.912;2023-04-03T11:45:15;72090.44;;;-145.80;35.50
6615;BME280;3343;42.896;23.912;2023-04-03T11:47:46;72086.44;;;-145.80;36.66
6615;BME280;3343;42.896;23.912;2023-04-03T11:50:37;72166.63;;;-145.80;36.05
6615;BME280;3343;42.896;23.912;2023-04-03T11:53:30;72188.69;;;-145.80;37.42
6615;BME280;3343;42.896;23.912;2023-04-03T11:56:00;72192.69;;;-145.80;37.69
6615;BME280;3343;42.896;23.912;2023-04-03T11:58:30;72206.72;;;-145.80;38.35
6615;BME280;3343;42.896;23.912;2023-04-03T12:01:06;72258.84;;;-145.80;39.66
6615;BME280;3343;42.896;23.912;2023-04-03T12:06:51;72359.13;;;-145.80;46.23
6615;BME280;3343;42.896;23.912;2023-04-03T12:12:34;72483.44;;;-145.80;53.45
6615;BME280;3343;42.896;23.912;2023-04-03T12:15:24;72481.44;;;-145.80;56.26
6615;BME280;3343;42.896;23.912;2023-04-03T12:17:53;72511.50;;;-145.80;57.93
6615;BME280;3343;42.896;23.912;2023-04-03T12:20:54;72503.47;;;-145.80;56.29
6615;BME280;3343;42.896;23.912;2023-04-03T12:23:30;72485.44;;;-145.80;57.18
6615;BME280;3343;42.896;23.912;2023-04-03T12:26:19;72447.34;;;-145.80;57.51
6615;BME280;3343;42.896;23.912;2023-04-03T12:28:48;72417.25;;;-145.80;58.09
6615;BME280;3343;42.896;23.912;2023-04-03T12:31:20;72407.22;;;-145.80;59.72
6615;BME280;3343;42.896;23.912;2023-04-03T12:34:12;72417.25;;;-145.80;59.21
6615;BME280;3343;42.896;23.912;2023-04-03T12:36:48;72481.44;;;-145.80;62.47
6615;BME280;3343;42.896;23.912;2023-04-03T12:39:49;72515.50;;;-145.80;62.72
6615;BME280;3343;42.896;23.912;2023-04-03T12:42:32;72531.56;;;-145.80;63.19
6615;BME280;3343;42.896;23.912;2023-04-03T12:45:09;72559.63;;;-145.80;65.94
6615;BME280;3343;42.896;23.912;2023-04-03T12:47:43;72563.63;;;-145.80;64.39
6615;BME280;3343;42.896;23.912;2023-04-03T12:50:19;72557.63;;;-145.80;65.27
6615;BME280;3343;42.896;23.912;2023-04-03T12:52:51;72533.56;;;-145.80;64.01
6615;BME280;3343;42.896;23.912;2023-04-03T12:55:22;72515.50;;;-145.80;61.38
6615;BME280;3343;42.896;23.912;2023-04-03T12:57:49;72491.44;;;-145.80;62.54
6615;BME280;3343;42.896;23.912;2023-04-03T13:00:31;72413.25;;;-145.80;58.73
6615;BME280;3343;42.896;23.912;2023-04-03T13:03:00;72375.16;;;-145.80;57.83
6615;BME280;3343;42.896;23.912;2023-04-03T13:05:28;72341.06;;;-145.80;58.50
6615;BME280;3343;42.896;23.912;2023-04-03T13:07:59;72313.00;;;-145.80;58.87
6615;BME280;3343;42.896;23.912;2023-04-03T13:10:29;72319.00;;;-145.80;59.13
6615;BME280;3343;42.896;23.912;2023-04-03T13:12:58;72329.03;;;-145.80;58.73
6615;BME280;3343;42.896;23.912;2023-04-03T13:15:30;72329.03;;;-145.80;58.30